Time;durP1;ratioP1;P1;durP2;ratioP2;P2;SDS_P1;SDS_P2;PMS_P1;PMS_P2;Temp;Humidity;BMP_temperature;BMP_pressure;BME280_temperature;BME280_humidity;BME280_pressure;Samples;Min_cycle;Max_cycle;Signal;HPM_P1;HPM_P2
2022/09/03 00:00:48;;;;;;;3.7;3.4;;;;;;;13.87;61.50488;95047.49;;;;
2022/09/03 00:01:54;;;;;;;3.7;3.4;;;;;;;13.87;61.50488;95047.49;;;;
2022/09/03 00:03:02;;;;;;;3.7;3.4;;;;;;;13.87;61.50488;95047.49;;;;
2022/09/03 00:04:10;;;;;;;3.7;3.4;;;;;;;13.87;61.50488;95047.49;;;;
2022/09/03 00:05:18;;;;;;;3.7;3.4;;;;;;;13.87;61.50488;95047.49;;;;
2022/09/03 00:06:23;;;;;;;3.7;3.4;;;;;;;13.87;61.50488;95047.49;;;;
2022/09/03 00:07:30;;;;;;;3.75;3.35;;;;;;;13.93;61.69922;95043.77;;;;
2022/09/03 00:08:38;;;;;;;3.75;3.35;;;;;;;13.93;61.69922;95043.77;;;;
2022/09/03 00:09:45;;;;;;;3.75;3.35;;;;;;;13.93;61.69922;95043.77;;;;
2022/09/03 00:10:51;;;;;;;3.75;3.35;;;;;;;13.93;61.69922;95043.77;;;;
2022/09/03 00:11:58;;;;;;;3.75;3.35;;;;;;;13.93;61.69922;95043.77;;;;
2022/09/03 00:13:07;;;;;;;3.75;3.35;;;;;;;13.93;61.69922;95043.77;;;;
2022/09/03 00:14:08;;;;;;;3.75;3.35;;;;;;;13.93;61.69922;95043.77;;;;
2022/09/03 00:15:14;;;;;;;3.75;3.35;;;;;;;13.93;61.69922;95043.77;;;;
2022/09/03 00:16:20;;;;;;;3.75;3.35;;;;;;;13.93;61.69922;95043.77;;;;
2022/09/03 00:17:25;;;;;;;3.75;3.35;;;;;;;13.93;61.69922;95043.77;;;;
2022/09/03 00:18:31;;;;;;;3.7;3.4;;;;;;;13.83;61.9248;95049.41;;;;
2022/09/03 00:19:33;;;;;;;3.7;3.4;;;;;;;13.83;61.9248;95049.41;;;;
2022/09/03 00:20:38;;;;;;;3.7;3.4;;;;;;;13.83;61.9248;95049.41;;;;
2022/09/03 00:21:43;;;;;;;3.7;3.4;;;;;;;13.83;61.9248;95049.41;;;;
2022/09/03 00:22:47;;;;;;;3.7;3.4;;;;;;;13.83;61.9248;95049.41;;;;
2022/09/03 00:23:51;;;;;;;3.7;3.4;;;;;;;13.83;61.9248;95049.41;;;;
2022/09/03 00:24:53;;;;;;;3.7;3.4;;;;;;;13.83;61.9248;95049.41;;;;
2022/09/03 00:25:56;;;;;;;3.7;3.4;;;;;;;13.83;61.9248;95049.41;;;;
2022/09/03 00:27:02;;;;;;;3.7;3.4;;;;;;;13.83;61.9248;95049.41;;;;
2022/09/03 00:28:11;;;;;;;3.7;3.4;;;;;;;13.83;61.9248;95049.41;;;;
2022/09/03 00:29:18;;;;;;;3.8;3.5;;;;;;;13.72;62.25781;95036.47;;;;
2022/09/03 00:30:26;;;;;;;3.8;3.5;;;;;;;13.72;62.25781;95036.47;;;;
2022/09/03 00:31:28;;;;;;;3.8;3.5;;;;;;;13.72;62.25781;95036.47;;;;
2022/09/03 00:32:32;;;;;;;3.8;3.5;;;;;;;13.72;62.25781;95036.47;;;;
2022/09/03 00:33:39;;;;;;;3.8;3.5;;;;;;;13.72;62.25781;95036.47;;;;
2022/09/03 00:34:41;;;;;;;3.8;3.5;;;;;;;13.72;62.25781;95036.47;;;;
2022/09/03 00:35:48;;;;;;;3.8;3.5;;;;;;;13.72;62.25781;95036.47;;;;
2022/09/03 00:36:53;;;;;;;3.8;3.5;;;;;;;13.72;62.25781;95036.47;;;;
2022/09/03 00:37:54;;;;;;;3.8;3.5;;;;;;;13.72;62.25781;95036.47;;;;
2022/09/03 00:38:56;;;;;;;3.8;3.5;;;;;;;13.72;62.25781;95036.47;;;;
2022/09/03 00:39:56;;;;;;;4.649999;3.4;;;;;;;13.46;62.68848;95031.7;;;;
2022/09/03 00:40:57;;;;;;;4.649999;3.4;;;;;;;13.46;62.68848;95031.7;;;;
2022/09/03 00:42:08;;;;;;;4.649999;3.4;;;;;;;13.46;62.68848;95031.7;;;;
2022/09/03 00:43:22;;;;;;;4.649999;3.4;;;;;;;13.46;62.68848;95031.7;;;;
2022/09/03 00:44:43;;;;;;;4.649999;3.4;;;;;;;13.46;62.68848;95031.7;;;;
2022/09/03 00:45:56;;;;;;;4.649999;3.4;;;;;;;13.46;62.68848;95031.7;;;;
2022/09/03 00:47:07;;;;;;;4.649999;3.4;;;;;;;13.46;62.68848;95031.7;;;;
2022/09/03 00:48:12;;;;;;;4.649999;3.4;;;;;;;13.46;62.68848;95031.7;;;;
2022/09/03 00:49:20;;;;;;;4.649999;3.4;;;;;;;13.46;62.68848;95031.7;;;;
2022/09/03 00:50:32;;;;;;;4.25;3.55;;;;;;;13.24;63.08008;95036.55;;;;
2022/09/03 00:51:44;;;;;;;4.25;3.55;;;;;;;13.24;63.08008;95036.55;;;;
2022/09/03 00:52:51;;;;;;;4.25;3.55;;;;;;;13.24;63.08008;95036.55;;;;
2022/09/03 00:54:04;;;;;;;4.25;3.55;;;;;;;13.24;63.08008;95036.55;;;;
2022/09/03 00:55:14;;;;;;;4.25;3.55;;;;;;;13.24;63.08008;95036.55;;;;
2022/09/03 00:56:25;;;;;;;4.25;3.55;;;;;;;13.24;63.08008;95036.55;;;;
2022/09/03 00:57:36;;;;;;;4.25;3.55;;;;;;;13.24;63.08008;95036.55;;;;
2022/09/03 00:58:50;;;;;;;4.25;3.55;;;;;;;13.24;63.08008;95036.55;;;;
2022/09/03 01:00:08;;;;;;;4.25;3.55;;;;;;;13.24;63.08008;95036.55;;;;
2022/09/03 01:01:12;;;;;;;4;3.6;;;;;;;13;63.47852;95049.95;;;;
2022/09/03 01:02:19;;;;;;;4;3.6;;;;;;;13;63.47852;95049.95;;;;
2022/09/03 01:03:30;;;;;;;4;3.6;;;;;;;13;63.47852;95049.95;;;;
2022/09/03 01:04:39;;;;;;;4;3.6;;;;;;;13;63.47852;95049.95;;;;
2022/09/03 01:05:58;;;;;;;4;3.6;;;;;;;13;63.47852;95049.95;;;;
2022/09/03 01:07:13;;;;;;;4;3.6;;;;;;;13;63.47852;95049.95;;;;
2022/09/03 01:08:25;;;;;;;4;3.6;;;;;;;13;63.47852;95049.95;;;;
2022/09/03 01:09:40;;;;;;;4;3.6;;;;;;;13;63.47852;95049.95;;;;
2022/09/03 01:10:52;;;;;;;4;3.6;;;;;;;13;63.47852;95049.95;;;;
2022/09/03 01:12:01;;;;;;;4;3.5;;;;;;;12.88;63.84277;95041.58;;;;
2022/09/03 01:13:13;;;;;;;4;3.5;;;;;;;12.88;63.84277;95041.58;;;;
2022/09/03 01:14:19;;;;;;;4;3.5;;;;;;;12.88;63.84277;95041.58;;;;
2022/09/03 01:15:31;;;;;;;4;3.5;;;;;;;12.88;63.84277;95041.58;;;;
2022/09/03 01:16:43;;;;;;;4;3.5;;;;;;;12.88;63.84277;95041.58;;;;
2022/09/03 01:17:50;;;;;;;4;3.5;;;;;;;12.88;63.84277;95041.58;;;;
2022/09/03 01:19:02;;;;;;;4;3.5;;;;;;;12.88;63.84277;95041.58;;;;
2022/09/03 01:20:21;;;;;;;4;3.5;;;;;;;12.88;63.84277;95041.58;;;;
2022/09/03 01:21:35;;;;;;;4;3.5;;;;;;;12.88;63.84277;95041.58;;;;
2022/09/03 01:22:56;;;;;;;5.2;3.900001;;;;;;;12.72;64.06836;95046.67;;;;
2022/09/03 01:24:20;;;;;;;5.2;3.900001;;;;;;;12.72;64.06836;95046.67;;;;
2022/09/03 01:25:43;;;;;;;5.2;3.900001;;;;;;;12.72;64.06836;95046.67;;;;
2022/09/03 01:26:52;;;;;;;5.2;3.900001;;;;;;;12.72;64.06836;95046.67;;;;
2022/09/03 01:28:09;;;;;;;5.2;3.900001;;;;;;;12.72;64.06836;95046.67;;;;
2022/09/03 01:29:18;;;;;;;5.2;3.900001;;;;;;;12.72;64.06836;95046.67;;;;
2022/09/03 01:30:24;;;;;;;5.2;3.900001;;;;;;;12.72;64.06836;95046.67;;;;
2022/09/03 01:31:25;;;;;;;5.2;3.900001;;;;;;;12.72;64.06836;95046.67;;;;
2022/09/03 01:32:35;;;;;;;4.849999;3.85;;;;;;;12.68;64.30176;95046.83;;;;
2022/09/03 01:33:45;;;;;;;4.849999;3.85;;;;;;;12.68;64.30176;95046.83;;;;
2022/09/03 01:34:54;;;;;;;4.849999;3.85;;;;;;;12.68;64.30176;95046.83;;;;
2022/09/03 01:36:11;;;;;;;4.849999;3.85;;;;;;;12.68;64.30176;95046.83;;;;
2022/09/03 01:37:19;;;;;;;4.849999;3.85;;;;;;;12.68;64.30176;95046.83;;;;
2022/09/03 01:38:30;;;;;;;4.849999;3.85;;;;;;;12.68;64.30176;95046.83;;;;
2022/09/03 01:39:40;;;;;;;4.849999;3.85;;;;;;;12.68;64.30176;95046.83;;;;
2022/09/03 01:40:53;;;;;;;4.849999;3.85;;;;;;;12.68;64.30176;95046.83;;;;
2022/09/03 01:42:21;;;;;;;4.849999;3.85;;;;;;;12.68;64.30176;95046.83;;;;
2022/09/03 01:43:34;;;;;;;4.45;4;;;;;;;12.53;64.56152;95032.28;;;;
2022/09/03 01:44:43;;;;;;;4.45;4;;;;;;;12.53;64.56152;95032.28;;;;
2022/09/03 01:46:01;;;;;;;4.45;4;;;;;;;12.53;64.56152;95032.28;;;;
2022/09/03 01:47:09;;;;;;;4.45;4;;;;;;;12.53;64.56152;95032.28;;;;
2022/09/03 01:48:22;;;;;;;4.45;4;;;;;;;12.53;64.56152;95032.28;;;;
2022/09/03 01:49:36;;;;;;;4.45;4;;;;;;;12.53;64.56152;95032.28;;;;
2022/09/03 01:50:40;;;;;;;4.45;4;;;;;;;12.53;64.56152;95032.28;;;;
2022/09/03 01:51:48;;;;;;;4.45;4;;;;;;;12.53;64.56152;95032.28;;;;
2022/09/03 01:52:59;;;;;;;4.45;4;;;;;;;12.53;64.56152;95032.28;;;;
2022/09/03 01:54:06;;;;;;;4.45;4.05;;;;;;;12.48;64.85645;95037.6;;;;
2022/09/03 01:55:40;;;;;;;4.45;4.05;;;;;;;12.48;64.85645;95037.6;;;;
2022/09/03 01:56:57;;;;;;;4.45;4.05;;;;;;;12.48;64.85645;95037.6;;;;
2022/09/03 01:58:18;;;;;;;4.45;4.05;;;;;;;12.48;64.85645;95037.6;;;;
2022/09/03 01:59:25;;;;;;;4.45;4.05;;;;;;;12.48;64.85645;95037.6;;;;
2022/09/03 02:00:30;;;;;;;4.45;4.05;;;;;;;12.48;64.85645;95037.6;;;;
2022/09/03 02:01:33;;;;;;;4.45;4.05;;;;;;;12.48;64.85645;95037.6;;;;
2022/09/03 02:02:40;;;;;;;4.45;4.05;;;;;;;12.48;64.85645;95037.6;;;;
2022/09/03 02:03:43;;;;;;;4.45;4.05;;;;;;;12.48;64.85645;95037.6;;;;
2022/09/03 02:04:45;;;;;;;5;4.1;;;;;;;12.37;65.05664;95023.82;;;;
2022/09/03 02:05:56;;;;;;;5;4.1;;;;;;;12.37;65.05664;95023.82;;;;
2022/09/03 02:06:57;;;;;;;5;4.1;;;;;;;12.37;65.05664;95023.82;;;;
2022/09/03 02:08:00;;;;;;;5;4.1;;;;;;;12.37;65.05664;95023.82;;;;
2022/09/03 02:09:02;;;;;;;5;4.1;;;;;;;12.37;65.05664;95023.82;;;;
2022/09/03 02:10:03;;;;;;;5;4.1;;;;;;;12.37;65.05664;95023.82;;;;
2022/09/03 02:11:07;;;;;;;5;4.1;;;;;;;12.37;65.05664;95023.82;;;;
2022/09/03 02:12:09;;;;;;;5;4.1;;;;;;;12.37;65.05664;95023.82;;;;
2022/09/03 02:13:15;;;;;;;5;4.1;;;;;;;12.37;65.05664;95023.82;;;;
2022/09/03 02:14:21;;;;;;;5;4.1;;;;;;;12.37;65.05664;95023.82;;;;
2022/09/03 02:15:22;;;;;;;5.3;4.3;;;;;;;12.3;65.31641;95024.84;;;;
2022/09/03 02:16:24;;;;;;;5.3;4.3;;;;;;;12.3;65.31641;95024.84;;;;
2022/09/03 02:17:30;;;;;;;5.3;4.3;;;;;;;12.3;65.31641;95024.84;;;;
2022/09/03 02:18:32;;;;;;;5.3;4.3;;;;;;;12.3;65.31641;95024.84;;;;
2022/09/03 02:19:39;;;;;;;5.3;4.3;;;;;;;12.3;65.31641;95024.84;;;;
2022/09/03 02:20:40;;;;;;;5.3;4.3;;;;;;;12.3;65.31641;95024.84;;;;
2022/09/03 02:21:41;;;;;;;5.3;4.3;;;;;;;12.3;65.31641;95024.84;;;;
2022/09/03 02:22:49;;;;;;;5.3;4.3;;;;;;;12.3;65.31641;95024.84;;;;
2022/09/03 02:23:51;;;;;;;5.3;4.3;;;;;;;12.3;65.31641;95024.84;;;;
2022/09/03 02:24:51;;;;;;;5.3;4.3;;;;;;;12.3;65.31641;95024.84;;;;
2022/09/03 02:25:52;;;;;;;4.900001;4.5;;;;;;;12.13;65.62891;95034.48;;;;
2022/09/03 02:26:56;;;;;;;4.900001;4.5;;;;;;;12.13;65.62891;95034.48;;;;
2022/09/03 02:27:57;;;;;;;4.900001;4.5;;;;;;;12.13;65.62891;95034.48;;;;
2022/09/03 02:28:58;;;;;;;4.900001;4.5;;;;;;;12.13;65.62891;95034.48;;;;
2022/09/03 02:30:01;;;;;;;4.900001;4.5;;;;;;;12.13;65.62891;95034.48;;;;
2022/09/03 02:31:02;;;;;;;4.900001;4.5;;;;;;;12.13;65.62891;95034.48;;;;
2022/09/03 02:32:03;;;;;;;4.900001;4.5;;;;;;;12.13;65.62891;95034.48;;;;
2022/09/03 02:33:04;;;;;;;4.900001;4.5;;;;;;;12.13;65.62891;95034.48;;;;
2022/09/03 02:34:05;;;;;;;4.900001;4.5;;;;;;;12.13;65.62891;95034.48;;;;
2022/09/03 02:35:05;;;;;;;4.900001;4.5;;;;;;;12.13;65.62891;95034.48;;;;
2022/09/03 02:36:07;;;;;;;4.900001;4.5;;;;;;;12.13;65.62891;95034.48;;;;
2022/09/03 02:37:10;;;;;;;4.5;4.1;;;;;;;12.03;65.95898;95038.19;;;;
2022/09/03 02:38:12;;;;;;;4.5;4.1;;;;;;;12.03;65.95898;95038.19;;;;
2022/09/03 02:39:16;;;;;;;4.5;4.1;;;;;;;12.03;65.95898;95038.19;;;;
2022/09/03 02:40:17;;;;;;;4.5;4.1;;;;;;;12.03;65.95898;95038.19;;;;
2022/09/03 02:41:18;;;;;;;4.5;4.1;;;;;;;12.03;65.95898;95038.19;;;;
2022/09/03 02:42:19;;;;;;;4.5;4.1;;;;;;;12.03;65.95898;95038.19;;;;
2022/09/03 02:43:20;;;;;;;4.5;4.1;;;;;;;12.03;65.95898;95038.19;;;;
2022/09/03 02:44:27;;;;;;;4.5;4.1;;;;;;;12.03;65.95898;95038.19;;;;
2022/09/03 02:45:32;;;;;;;4.5;4.1;;;;;;;12.03;65.95898;95038.19;;;;
2022/09/03 02:46:35;;;;;;;4.5;4.1;;;;;;;12.03;65.95898;95038.19;;;;
2022/09/03 02:47:42;;;;;;;4.55;4.149999;;;;;;;11.88;66.27246;95038.73;;;;
2022/09/03 02:48:46;;;;;;;4.55;4.149999;;;;;;;11.88;66.27246;95038.73;;;;
2022/09/03 02:49:47;;;;;;;4.55;4.149999;;;;;;;11.88;66.27246;95038.73;;;;
2022/09/03 02:50:48;;;;;;;4.55;4.149999;;;;;;;11.88;66.27246;95038.73;;;;
2022/09/03 02:51:49;;;;;;;4.55;4.149999;;;;;;;11.88;66.27246;95038.73;;;;
2022/09/03 02:52:49;;;;;;;4.55;4.149999;;;;;;;11.88;66.27246;95038.73;;;;
2022/09/03 02:53:50;;;;;;;4.55;4.149999;;;;;;;11.88;66.27246;95038.73;;;;
2022/09/03 02:54:51;;;;;;;4.55;4.149999;;;;;;;11.88;66.27246;95038.73;;;;
2022/09/03 02:55:51;;;;;;;4.55;4.149999;;;;;;;11.88;66.27246;95038.73;;;;
2022/09/03 02:56:52;;;;;;;4.55;4.149999;;;;;;;11.88;66.27246;95038.73;;;;
2022/09/03 02:57:53;;;;;;;4.75;4.35;;;;;;;11.81;66.53125;95037.5;;;;
2022/09/03 02:58:53;;;;;;;4.75;4.35;;;;;;;11.81;66.53125;95037.5;;;;
2022/09/03 02:59:54;;;;;;;4.75;4.35;;;;;;;11.81;66.53125;95037.5;;;;
2022/09/03 03:00:55;;;;;;;4.75;4.35;;;;;;;11.81;66.53125;95037.5;;;;
2022/09/03 03:01:56;;;;;;;4.75;4.35;;;;;;;11.81;66.53125;95037.5;;;;
2022/09/03 03:02:56;;;;;;;4.75;4.35;;;;;;;11.81;66.53125;95037.5;;;;
2022/09/03 03:03:57;;;;;;;4.75;4.35;;;;;;;11.81;66.53125;95037.5;;;;
2022/09/03 03:04:58;;;;;;;4.75;4.35;;;;;;;11.81;66.53125;95037.5;;;;
2022/09/03 03:05:58;;;;;;;4.75;4.35;;;;;;;11.81;66.53125;95037.5;;;;
2022/09/03 03:07:02;;;;;;;4.75;4.35;;;;;;;11.81;66.53125;95037.5;;;;
2022/09/03 03:08:02;;;;;;;4.75;4.35;;;;;;;11.81;66.53125;95037.5;;;;
2022/09/03 03:09:04;;;;;;;8.6;4.65;;;;;;;11.68;66.8252;95028.42;;;;
2022/09/03 03:10:05;;;;;;;8.6;4.65;;;;;;;11.68;66.8252;95028.42;;;;
2022/09/03 03:11:06;;;;;;;8.6;4.65;;;;;;;11.68;66.8252;95028.42;;;;
2022/09/03 03:12:08;;;;;;;8.6;4.65;;;;;;;11.68;66.8252;95028.42;;;;
2022/09/03 03:13:09;;;;;;;8.6;4.65;;;;;;;11.68;66.8252;95028.42;;;;
2022/09/03 03:14:09;;;;;;;8.6;4.65;;;;;;;11.68;66.8252;95028.42;;;;
2022/09/03 03:15:10;;;;;;;8.6;4.65;;;;;;;11.68;66.8252;95028.42;;;;
2022/09/03 03:16:10;;;;;;;8.6;4.65;;;;;;;11.68;66.8252;95028.42;;;;
2022/09/03 03:17:12;;;;;;;8.6;4.65;;;;;;;11.68;66.8252;95028.42;;;;
2022/09/03 03:18:13;;;;;;;8.6;4.65;;;;;;;11.68;66.8252;95028.42;;;;
2022/09/03 03:19:14;;;;;;;5.299999;4.45;;;;;;;11.61;67.03223;95031.13;;;;
2022/09/03 03:20:14;;;;;;;5.299999;4.45;;;;;;;11.61;67.03223;95031.13;;;;
2022/09/03 03:21:15;;;;;;;5.299999;4.45;;;;;;;11.61;67.03223;95031.13;;;;
2022/09/03 03:22:17;;;;;;;5.299999;4.45;;;;;;;11.61;67.03223;95031.13;;;;
2022/09/03 03:23:18;;;;;;;5.299999;4.45;;;;;;;11.61;67.03223;95031.13;;;;
2022/09/03 03:24:19;;;;;;;5.299999;4.45;;;;;;;11.61;67.03223;95031.13;;;;
2022/09/03 03:25:19;;;;;;;5.299999;4.45;;;;;;;11.61;67.03223;95031.13;;;;
2022/09/03 03:26:20;;;;;;;5.299999;4.45;;;;;;;11.61;67.03223;95031.13;;;;
2022/09/03 03:27:21;;;;;;;5.299999;4.45;;;;;;;11.61;67.03223;95031.13;;;;
2022/09/03 03:28:22;;;;;;;5.299999;4.45;;;;;;;11.61;67.03223;95031.13;;;;
2022/09/03 03:29:23;;;;;;;5.299999;4.45;;;;;;;11.61;67.03223;95031.13;;;;
2022/09/03 03:30:25;;;;;;;6.5;4.600001;;;;;;;11.51;67.27441;95035.35;;;;
2022/09/03 03:31:26;;;;;;;6.5;4.600001;;;;;;;11.51;67.27441;95035.35;;;;
2022/09/03 03:32:26;;;;;;;6.5;4.600001;;;;;;;11.51;67.27441;95035.35;;;;
2022/09/03 03:33:27;;;;;;;6.5;4.600001;;;;;;;11.51;67.27441;95035.35;;;;
2022/09/03 03:34:27;;;;;;;6.5;4.600001;;;;;;;11.51;67.27441;95035.35;;;;
2022/09/03 03:35:28;;;;;;;6.5;4.600001;;;;;;;11.51;67.27441;95035.35;;;;
2022/09/03 03:36:29;;;;;;;6.5;4.600001;;;;;;;11.51;67.27441;95035.35;;;;
2022/09/03 03:37:32;;;;;;;6.5;4.600001;;;;;;;11.51;67.27441;95035.35;;;;
2022/09/03 03:38:32;;;;;;;6.5;4.600001;;;;;;;11.51;67.27441;95035.35;;;;
2022/09/03 03:39:33;;;;;;;6.5;4.600001;;;;;;;11.51;67.27441;95035.35;;;;
2022/09/03 03:40:35;;;;;;;5.1;4.6;;;;;;;11.5;67.44531;95042.57;;;;
2022/09/03 03:41:37;;;;;;;5.1;4.6;;;;;;;11.5;67.44531;95042.57;;;;
2022/09/03 03:42:38;;;;;;;5.1;4.6;;;;;;;11.5;67.44531;95042.57;;;;
2022/09/03 03:43:38;;;;;;;5.1;4.6;;;;;;;11.5;67.44531;95042.57;;;;
2022/09/03 03:44:41;;;;;;;5.1;4.6;;;;;;;11.5;67.44531;95042.57;;;;
2022/09/03 03:45:41;;;;;;;5.1;4.6;;;;;;;11.5;67.44531;95042.57;;;;
2022/09/03 03:46:42;;;;;;;5.1;4.6;;;;;;;11.5;67.44531;95042.57;;;;
2022/09/03 03:47:42;;;;;;;5.1;4.6;;;;;;;11.5;67.44531;95042.57;;;;
2022/09/03 03:48:43;;;;;;;5.1;4.6;;;;;;;11.5;67.44531;95042.57;;;;
2022/09/03 03:49:47;;;;;;;5.1;4.6;;;;;;;11.5;67.44531;95042.57;;;;
2022/09/03 03:50:47;;;;;;;5.1;4.6;;;;;;;11.5;67.44531;95042.57;;;;
2022/09/03 03:51:48;;;;;;;5.1;4.6;;;;;;;11.5;67.44531;95042.57;;;;
2022/09/03 03:52:48;;;;;;;5.1;4.6;;;;;;;11.5;67.44531;95042.57;;;;
2022/09/03 03:53:49;;;;;;;5.1;4.6;;;;;;;11.5;67.44531;95042.57;;;;
2022/09/03 03:54:53;;;;;;;5.1;4.6;;;;;;;11.5;67.44531;95042.57;;;;
2022/09/03 03:55:54;;;;;;;5.1;4.6;;;;;;;11.5;67.44531;95042.57;;;;
2022/09/03 03:56:55;;;;;;;5.1;4.6;;;;;;;11.5;67.44531;95042.57;;;;
2022/09/03 03:57:56;;;;;;;5.1;4.6;;;;;;;11.5;67.44531;95042.57;;;;
2022/09/03 03:58:57;;;;;;;5.1;4.6;;;;;;;11.5;67.44531;95042.57;;;;
2022/09/03 03:59:58;;;;;;;5.1;4.6;;;;;;;11.5;67.44531;95042.57;;;;
2022/09/03 04:00:59;;;;;;;5.1;4.6;;;;;;;11.5;67.44531;95042.57;;;;
2022/09/03 04:02:04;;;;;;;6.949999;4.799999;;;;;;;11.39;67.87305;95044.14;;;;
2022/09/03 04:03:05;;;;;;;6.949999;4.799999;;;;;;;11.39;67.87305;95044.14;;;;
2022/09/03 04:04:05;;;;;;;6.949999;4.799999;;;;;;;11.39;67.87305;95044.14;;;;
2022/09/03 04:05:06;;;;;;;6.949999;4.799999;;;;;;;11.39;67.87305;95044.14;;;;
2022/09/03 04:06:07;;;;;;;6.949999;4.799999;;;;;;;11.39;67.87305;95044.14;;;;
2022/09/03 04:07:10;;;;;;;6.949999;4.799999;;;;;;;11.39;67.87305;95044.14;;;;
2022/09/03 04:08:11;;;;;;;6.949999;4.799999;;;;;;;11.39;67.87305;95044.14;;;;
2022/09/03 04:09:12;;;;;;;6.949999;4.799999;;;;;;;11.39;67.87305;95044.14;;;;
2022/09/03 04:10:14;;;;;;;6.949999;4.799999;;;;;;;11.39;67.87305;95044.14;;;;
2022/09/03 04:11:14;;;;;;;6.949999;4.799999;;;;;;;11.39;67.87305;95044.14;;;;
2022/09/03 04:12:18;;;;;;;6.949999;4.799999;;;;;;;11.39;67.87305;95044.14;;;;
2022/09/03 04:13:18;;;;;;;5.349999;4.849999;;;;;;;11.43;68.05176;95036.44;;;;
2022/09/03 04:14:19;;;;;;;5.349999;4.849999;;;;;;;11.43;68.05176;95036.44;;;;
2022/09/03 04:15:20;;;;;;;5.349999;4.849999;;;;;;;11.43;68.05176;95036.44;;;;
2022/09/03 04:16:20;;;;;;;5.349999;4.849999;;;;;;;11.43;68.05176;95036.44;;;;
2022/09/03 04:17:23;;;;;;;5.349999;4.849999;;;;;;;11.43;68.05176;95036.44;;;;
2022/09/03 04:18:23;;;;;;;5.349999;4.849999;;;;;;;11.43;68.05176;95036.44;;;;
2022/09/03 04:19:24;;;;;;;5.349999;4.849999;;;;;;;11.43;68.05176;95036.44;;;;
2022/09/03 04:20:24;;;;;;;5.349999;4.849999;;;;;;;11.43;68.05176;95036.44;;;;
2022/09/03 04:21:25;;;;;;;5.349999;4.849999;;;;;;;11.43;68.05176;95036.44;;;;
2022/09/03 04:22:28;;;;;;;5.349999;4.849999;;;;;;;11.43;68.05176;95036.44;;;;
2022/09/03 04:23:28;;;;;;;5.400001;4.900001;;;;;;;11.63;68.11426;95037.52;;;;
2022/09/03 04:24:31;;;;;;;5.400001;4.900001;;;;;;;11.63;68.11426;95037.52;;;;
2022/09/03 04:25:32;;;;;;;5.400001;4.900001;;;;;;;11.63;68.11426;95037.52;;;;
2022/09/03 04:26:32;;;;;;;5.400001;4.900001;;;;;;;11.63;68.11426;95037.52;;;;
2022/09/03 04:27:34;;;;;;;5.400001;4.900001;;;;;;;11.63;68.11426;95037.52;;;;
2022/09/03 04:28:34;;;;;;;5.400001;4.900001;;;;;;;11.63;68.11426;95037.52;;;;
2022/09/03 04:29:36;;;;;;;5.400001;4.900001;;;;;;;11.63;68.11426;95037.52;;;;
2022/09/03 04:30:36;;;;;;;5.400001;4.900001;;;;;;;11.63;68.11426;95037.52;;;;
2022/09/03 04:31:37;;;;;;;5.400001;4.900001;;;;;;;11.63;68.11426;95037.52;;;;
2022/09/03 04:32:54;;;;;;;5.400001;4.900001;;;;;;;11.63;68.11426;95037.52;;;;
2022/09/03 04:33:55;;;;;;;4.85;4.35;;;;;;;11.82;68.13281;95044;;;;
2022/09/03 04:34:56;;;;;;;4.85;4.35;;;;;;;11.82;68.13281;95044;;;;
2022/09/03 04:35:56;;;;;;;4.85;4.35;;;;;;;11.82;68.13281;95044;;;;
2022/09/03 04:37:04;;;;;;;4.85;4.35;;;;;;;11.82;68.13281;95044;;;;
2022/09/03 04:38:05;;;;;;;4.85;4.35;;;;;;;11.82;68.13281;95044;;;;
2022/09/03 04:39:05;;;;;;;4.85;4.35;;;;;;;11.82;68.13281;95044;;;;
2022/09/03 04:40:06;;;;;;;4.85;4.35;;;;;;;11.82;68.13281;95044;;;;
2022/09/03 04:41:07;;;;;;;4.85;4.35;;;;;;;11.82;68.13281;95044;;;;
2022/09/03 04:42:11;;;;;;;4.85;4.35;;;;;;;11.82;68.13281;95044;;;;
2022/09/03 04:43:11;;;;;;;4.85;4.35;;;;;;;11.82;68.13281;95044;;;;
2022/09/03 04:44:12;;;;;;;4.85;4.35;;;;;;;11.82;68.13281;95044;;;;
2022/09/03 04:45:17;;;;;;;5.5;4.6;;;;;;;12.02;68.18652;95055.54;;;;
2022/09/03 04:46:17;;;;;;;5.5;4.6;;;;;;;12.02;68.18652;95055.54;;;;
2022/09/03 04:47:19;;;;;;;5.5;4.6;;;;;;;12.02;68.18652;95055.54;;;;
2022/09/03 04:48:20;;;;;;;5.5;4.6;;;;;;;12.02;68.18652;95055.54;;;;
2022/09/03 04:49:20;;;;;;;5.5;4.6;;;;;;;12.02;68.18652;95055.54;;;;
2022/09/03 04:50:22;;;;;;;5.5;4.6;;;;;;;12.02;68.18652;95055.54;;;;
2022/09/03 04:51:23;;;;;;;5.5;4.6;;;;;;;12.02;68.18652;95055.54;;;;
2022/09/03 04:52:30;;;;;;;5.5;4.6;;;;;;;12.02;68.18652;95055.54;;;;
2022/09/03 04:53:30;;;;;;;5.5;4.6;;;;;;;12.02;68.18652;95055.54;;;;
2022/09/03 04:54:32;;;;;;;5.5;4.6;;;;;;;12.02;68.18652;95055.54;;;;
2022/09/03 04:55:34;;;;;;;4.849999;4.45;;;;;;;12.25;68.22266;95067.94;;;;
2022/09/03 04:56:36;;;;;;;4.849999;4.45;;;;;;;12.25;68.22266;95067.94;;;;
2022/09/03 04:57:38;;;;;;;4.849999;4.45;;;;;;;12.25;68.22266;95067.94;;;;
2022/09/03 04:58:38;;;;;;;4.849999;4.45;;;;;;;12.25;68.22266;95067.94;;;;
2022/09/03 04:59:40;;;;;;;4.849999;4.45;;;;;;;12.25;68.22266;95067.94;;;;
2022/09/03 05:00:40;;;;;;;4.849999;4.45;;;;;;;12.25;68.22266;95067.94;;;;
2022/09/03 05:01:41;;;;;;;4.849999;4.45;;;;;;;12.25;68.22266;95067.94;;;;
2022/09/03 05:02:43;;;;;;;4.849999;4.45;;;;;;;12.25;68.22266;95067.94;;;;
2022/09/03 05:03:43;;;;;;;4.849999;4.45;;;;;;;12.25;68.22266;95067.94;;;;
2022/09/03 05:04:45;;;;;;;4.849999;4.45;;;;;;;12.25;68.22266;95067.94;;;;
2022/09/03 05:05:46;;;;;;;4.75;4.35;;;;;;;12.64;68.16406;95068.73;;;;
2022/09/03 05:06:52;;;;;;;4.75;4.35;;;;;;;12.64;68.16406;95068.73;;;;
2022/09/03 05:07:52;;;;;;;4.75;4.35;;;;;;;12.64;68.16406;95068.73;;;;
2022/09/03 05:08:57;;;;;;;4.75;4.35;;;;;;;12.64;68.16406;95068.73;;;;
2022/09/03 05:09:58;;;;;;;4.75;4.35;;;;;;;12.64;68.16406;95068.73;;;;
2022/09/03 05:10:59;;;;;;;4.75;4.35;;;;;;;12.64;68.16406;95068.73;;;;
2022/09/03 05:12:00;;;;;;;4.75;4.35;;;;;;;12.64;68.16406;95068.73;;;;
2022/09/03 05:13:00;;;;;;;4.75;4.35;;;;;;;12.64;68.16406;95068.73;;;;
2022/09/03 05:14:04;;;;;;;4.75;4.35;;;;;;;12.64;68.16406;95068.73;;;;
2022/09/03 05:15:05;;;;;;;4.75;4.35;;;;;;;12.64;68.16406;95068.73;;;;
2022/09/03 05:16:06;;;;;;;4.75;4.35;;;;;;;12.64;68.16406;95068.73;;;;
2022/09/03 05:17:09;;;;;;;4.849999;4.349999;;;;;;;13.06;67.86035;95089.25;;;;
2022/09/03 05:18:09;;;;;;;4.849999;4.349999;;;;;;;13.06;67.86035;95089.25;;;;
2022/09/03 05:19:11;;;;;;;4.849999;4.349999;;;;;;;13.06;67.86035;95089.25;;;;
2022/09/03 05:20:11;;;;;;;4.849999;4.349999;;;;;;;13.06;67.86035;95089.25;;;;
2022/09/03 05:21:12;;;;;;;4.849999;4.349999;;;;;;;13.06;67.86035;95089.25;;;;
2022/09/03 05:22:20;;;;;;;4.849999;4.349999;;;;;;;13.06;67.86035;95089.25;;;;
2022/09/03 05:23:21;;;;;;;4.849999;4.349999;;;;;;;13.06;67.86035;95089.25;;;;
2022/09/03 05:24:21;;;;;;;4.849999;4.349999;;;;;;;13.06;67.86035;95089.25;;;;
2022/09/03 05:25:22;;;;;;;4.849999;4.349999;;;;;;;13.06;67.86035;95089.25;;;;
2022/09/03 05:26:23;;;;;;;4.849999;4.349999;;;;;;;13.06;67.86035;95089.25;;;;
2022/09/03 05:27:26;;;;;;;4.649999;4.25;;;;;;;13.54;67.78223;95114.58;;;;
2022/09/03 05:28:26;;;;;;;4.649999;4.25;;;;;;;13.54;67.78223;95114.58;;;;
2022/09/03 05:29:28;;;;;;;4.649999;4.25;;;;;;;13.54;67.78223;95114.58;;;;
2022/09/03 05:30:29;;;;;;;4.649999;4.25;;;;;;;13.54;67.78223;95114.58;;;;
2022/09/03 05:31:30;;;;;;;4.649999;4.25;;;;;;;13.54;67.78223;95114.58;;;;
2022/09/03 05:32:31;;;;;;;4.649999;4.25;;;;;;;13.54;67.78223;95114.58;;;;
2022/09/03 05:33:32;;;;;;;4.649999;4.25;;;;;;;13.54;67.78223;95114.58;;;;
2022/09/03 05:34:33;;;;;;;4.649999;4.25;;;;;;;13.54;67.78223;95114.58;;;;
2022/09/03 05:35:33;;;;;;;4.649999;4.25;;;;;;;13.54;67.78223;95114.58;;;;
2022/09/03 05:36:34;;;;;;;4.649999;4.25;;;;;;;13.54;67.78223;95114.58;;;;
2022/09/03 05:37:36;;;;;;;4.649999;4.25;;;;;;;13.54;67.78223;95114.58;;;;
2022/09/03 05:38:36;;;;;;;4.75;4.149999;;;;;;;13.96;67.57422;95104.14;;;;
2022/09/03 05:39:38;;;;;;;4.75;4.149999;;;;;;;13.96;67.57422;95104.14;;;;
2022/09/03 05:40:40;;;;;;;4.75;4.149999;;;;;;;13.96;67.57422;95104.14;;;;
2022/09/03 05:41:41;;;;;;;4.75;4.149999;;;;;;;13.96;67.57422;95104.14;;;;
2022/09/03 05:42:41;;;;;;;4.75;4.149999;;;;;;;13.96;67.57422;95104.14;;;;
2022/09/03 05:43:42;;;;;;;4.75;4.149999;;;;;;;13.96;67.57422;95104.14;;;;
2022/09/03 05:44:43;;;;;;;4.75;4.149999;;;;;;;13.96;67.57422;95104.14;;;;
2022/09/03 05:45:43;;;;;;;4.75;4.149999;;;;;;;13.96;67.57422;95104.14;;;;
2022/09/03 05:46:44;;;;;;;4.75;4.149999;;;;;;;13.96;67.57422;95104.14;;;;
2022/09/03 05:47:44;;;;;;;4.75;4.149999;;;;;;;13.96;67.57422;95104.14;;;;
2022/09/03 05:48:44;;;;;;;4.75;3.8;;;;;;;14.49;67.21191;95096.48;;;;
2022/09/03 05:49:45;;;;;;;4.75;3.8;;;;;;;14.49;67.21191;95096.48;;;;
2022/09/03 05:50:46;;;;;;;4.75;3.8;;;;;;;14.49;67.21191;95096.48;;;;
2022/09/03 05:51:46;;;;;;;4.75;3.8;;;;;;;14.49;67.21191;95096.48;;;;
2022/09/03 05:52:47;;;;;;;4.75;3.8;;;;;;;14.49;67.21191;95096.48;;;;
2022/09/03 05:53:47;;;;;;;4.75;3.8;;;;;;;14.49;67.21191;95096.48;;;;
2022/09/03 05:54:48;;;;;;;4.75;3.8;;;;;;;14.49;67.21191;95096.48;;;;
2022/09/03 05:55:48;;;;;;;4.75;3.8;;;;;;;14.49;67.21191;95096.48;;;;
2022/09/03 05:56:54;;;;;;;4.75;3.8;;;;;;;14.49;67.21191;95096.48;;;;
2022/09/03 05:57:54;;;;;;;4.75;3.8;;;;;;;14.49;67.21191;95096.48;;;;
2022/09/03 05:58:55;;;;;;;4.75;3.8;;;;;;;14.49;67.21191;95096.48;;;;